Time;durP1;ratioP1;P1;durP2;ratioP2;P2;SDS_P1;SDS_P2;PMS_P1;PMS_P2;Temp;Humidity;BMP_temperature;BMP_pressure;BME280_temperature;BME280_humidity;BME280_pressure;Samples;Min_cycle;Max_cycle;Signal;HPM_P1;HPM_P2
2023/09/14 00:00:51;;;;;;;6.53;2.75;;;;;;;19.02;58.39;102168.19;5054059;28;20342;-65
2023/09/14 00:03:19;;;;;;;7.20;2.08;;;;;;;19.00;58.43;102165.69;5054739;27;20099;-66
2023/09/14 00:05:49;;;;;;;6.28;2.33;;;;;;;18.94;58.27;102155.78;5054598;27;20071;-66
2023/09/14 00:08:18;;;;;;;8.63;2.70;;;;;;;18.98;58.28;102170.56;5056774;27;20078;-66
2023/09/14 00:10:46;;;;;;;6.28;2.80;;;;;;;18.98;58.44;102167.00;5056434;28;20061;-66
2023/09/14 00:13:15;;;;;;;7.25;2.20;;;;;;;18.96;58.43;102169.16;5059225;27;20041;-66
2023/09/14 00:15:43;;;;;;;5.63;2.50;;;;;;;18.94;58.35;102169.41;5054429;27;20045;-66
2023/09/14 00:18:11;;;;;;;6.53;3.00;;;;;;;18.93;58.17;102165.03;5054218;28;20091;-66
2023/09/14 00:20:39;;;;;;;7.10;2.60;;;;;;;18.93;58.17;102166.94;5060865;27;20049;-66
2023/09/14 00:23:06;;;;;;;6.13;2.67;;;;;;;18.91;58.44;102172.63;5057753;27;20444;-66
2023/09/14 00:25:34;;;;;;;5.03;2.35;;;;;;;18.91;58.33;102180.78;5058035;27;20049;-66
2023/09/14 00:28:02;;;;;;;8.95;2.78;;;;;;;18.90;58.44;102178.31;5060242;27;20048;-66
2023/09/14 00:30:32;;;;;;;6.78;2.30;;;;;;;18.88;58.15;102170.38;5053150;28;20045;-66
2023/09/14 00:33:00;;;;;;;5.55;1.95;;;;;;;18.85;58.13;102177.16;5053938;27;20049;-66
2023/09/14 00:35:27;;;;;;;5.72;2.55;;;;;;;18.85;58.39;102168.97;5053739;28;20051;-65
2023/09/14 00:37:55;;;;;;;4.43;2.00;;;;;;;18.71;58.49;102155.91;5058056;27;20057;-66
2023/09/14 00:40:25;;;;;;;5.38;2.17;;;;;;;18.83;58.32;102175.75;5052733;28;20121;-66
2023/09/14 00:42:53;;;;;;;4.68;2.67;;;;;;;18.82;58.42;102174.09;5051176;27;20049;-66
2023/09/14 00:45:22;;;;;;;5.15;2.53;;;;;;;18.79;58.19;102161.78;5056275;28;20056;-66
2023/09/14 00:47:53;;;;;;;6.43;2.60;;;;;;;18.81;58.33;102175.16;5055520;27;20413;-66
2023/09/14 00:50:22;;;;;;;5.97;2.35;;;;;;;18.78;58.27;102171.03;5055410;28;20086;-66
2023/09/14 00:52:52;;;;;;;4.32;2.03;;;;;;;18.78;58.15;102170.19;5058921;27;20042;-66
2023/09/14 00:55:21;;;;;;;7.32;2.40;;;;;;;18.77;58.35;102180.28;5053338;28;20728;-66
2023/09/14 00:57:49;;;;;;;6.13;2.00;;;;;;;18.72;58.20;102168.44;5055512;28;20108;-65
2023/09/14 01:00:18;;;;;;;4.80;2.40;;;;;;;18.76;58.29;102170.44;5055609;28;20061;-66
2023/09/14 01:02:46;;;;;;;4.43;2.10;;;;;;;18.74;58.36;102180.75;5057330;27;20075;-66
2023/09/14 01:05:16;;;;;;;4.70;2.08;;;;;;;18.74;58.31;102178.03;5054987;28;20052;-66
2023/09/14 01:07:44;;;;;;;6.00;2.28;;;;;;;18.73;58.29;102167.38;5059209;28;20056;-66
2023/09/14 01:10:12;;;;;;;5.32;2.30;;;;;;;18.71;58.33;102173.06;5056951;27;20072;-66
2023/09/14 01:12:40;;;;;;;8.23;2.35;;;;;;;18.70;58.07;102170.59;5055724;27;20045;-66
2023/09/14 01:15:14;;;;;;;6.18;2.33;;;;;;;18.70;58.22;102170.59;5052861;27;21476;-66
2023/09/14 01:17:53;;;;;;;5.53;2.10;;;;;;;18.68;58.06;102173.56;5057837;27;20127;-65
2023/09/14 01:20:52;;;;;;;4.40;2.15;;;;;;;18.66;58.19;102169.44;5058676;27;20139;-66
2023/09/14 01:23:31;;;;;;;3.87;2.47;;;;;;;18.65;58.18;102167.78;5058137;27;20498;-66
2023/09/14 01:26:01;;;;;;;5.07;2.40;;;;;;;18.65;58.26;102175.94;5053618;27;20819;-66
2023/09/14 01:28:29;;;;;;;6.50;2.35;;;;;;;18.59;58.25;102172.25;5056789;28;20061;-66
2023/09/14 01:30:58;;;;;;;5.45;2.47;;;;;;;18.59;58.45;102176.88;5057517;28;20048;-66
2023/09/14 01:33:27;;;;;;;5.47;2.25;;;;;;;18.61;58.45;102182.94;5056183;27;20045;-66
2023/09/14 01:36:02;;;;;;;4.80;2.10;;;;;;;18.60;57.89;102178.53;5057369;28;20109;-66
2023/09/14 01:38:32;;;;;;;4.57;2.33;;;;;;;18.58;58.09;102183.41;5055516;28;20074;-66
2023/09/14 01:41:02;;;;;;;5.22;2.30;;;;;;;18.58;58.08;102183.41;5061108;27;20318;-66
2023/09/14 01:43:32;;;;;;;8.80;2.88;;;;;;;18.56;58.16;102177.38;5058477;27;20102;-65
2023/09/14 01:46:00;;;;;;;4.55;2.25;;;;;;;18.54;58.06;102170.25;5056248;27;20045;-66
2023/09/14 01:48:28;;;;;;;5.40;2.63;;;;;;;18.53;58.13;102173.22;5056247;27;20061;-66
2023/09/14 01:50:56;;;;;;;7.50;1.83;;;;;;;18.52;58.05;102169.69;5057278;28;20044;-66
2023/09/14 01:53:24;;;;;;;5.60;2.55;;;;;;;18.50;57.90;102171.00;5058803;28;20041;-66
2023/09/14 01:55:51;;;;;;;4.57;2.38;;;;;;;18.48;57.84;102165.78;5060677;27;20176;-66
2023/09/14 01:58:21;;;;;;;6.28;2.58;;;;;;;18.49;57.94;102166.63;5060061;27;20045;-66
2023/09/14 02:00:49;;;;;;;5.05;2.55;;;;;;;18.46;57.84;102176.09;5054079;28;20132;-66
2023/09/14 02:03:17;;;;;;;5.05;2.47;;;;;;;18.44;58.12;102171.97;5053338;28;20136;-66
2023/09/14 02:05:45;;;;;;;5.22;2.28;;;;;;;18.44;57.86;102174.69;5059268;27;20045;-66
2023/09/14 02:08:12;;;;;;;6.38;2.45;;;;;;;18.43;57.98;102176.56;5057275;28;20156;-66
2023/09/14 02:10:40;;;;;;;4.82;2.22;;;;;;;18.40;58.02;102166.19;5055919;28;20120;-65
2023/09/14 02:13:08;;;;;;;5.03;2.28;;;;;;;18.39;58.00;102172.69;5059996;27;20044;-65
2023/09/14 02:15:38;;;;;;;4.70;2.22;;;;;;;18.38;57.75;102168.31;5055257;28;20044;-65
2023/09/14 02:18:06;;;;;;;6.70;1.90;;;;;;;18.36;58.12;102161.47;5054914;28;20052;-65
2023/09/14 02:20:35;;;;;;;4.47;2.60;;;;;;;18.35;57.67;102168.78;5058201;27;20053;-65
2023/09/14 02:23:03;;;;;;;6.65;2.58;;;;;;;18.34;57.77;102166.31;5059392;28;20052;-65
2023/09/14 02:25:30;;;;;;;4.00;2.40;;;;;;;18.33;57.90;102164.66;5079713;27;20090;-65
2023/09/14 02:27:58;;;;;;;5.18;2.22;;;;;;;18.32;57.80;102166.56;5055273;28;20131;-66
2023/09/14 02:30:27;;;;;;;3.88;2.25;;;;;;;18.25;58.02;102152.25;5052593;28;20155;-65
2023/09/14 02:32:56;;;;;;;4.20;2.22;;;;;;;18.29;57.91;102160.78;5049898;27;20053;-65
2023/09/14 02:35:24;;;;;;;3.95;1.88;;;;;;;18.29;57.89;102158.03;5059216;27;20065;-66
2023/09/14 02:37:51;;;;;;;5.80;2.90;;;;;;;18.26;57.88;102162.06;5060337;28;20049;-65
2023/09/14 02:40:20;;;;;;;5.32;2.40;;;;;;;18.11;57.89;102137.28;5058351;27;20076;-66
2023/09/14 02:42:48;;;;;;;7.45;2.67;;;;;;;18.25;57.89;102154.16;5052049;27;20076;-65
2023/09/14 02:45:16;;;;;;;5.10;2.42;;;;;;;18.24;57.85;102157.94;5057781;28;20080;-65
2023/09/14 02:47:43;;;;;;;6.38;2.47;;;;;;;18.22;57.86;102150.03;5053262;27;20049;-65
2023/09/14 02:50:13;;;;;;;6.03;2.17;;;;;;;18.20;57.73;102152.97;5052300;28;20049;-66
2023/09/14 02:52:40;;;;;;;5.22;2.22;;;;;;;18.18;57.99;102149.66;5059917;27;20110;-65
2023/09/14 02:55:09;;;;;;;4.93;2.38;;;;;;;18.17;57.94;102150.75;5056802;28;20101;-65
2023/09/14 02:57:37;;;;;;;5.43;2.33;;;;;;;18.17;57.89;102152.63;5058131;28;20059;-65
2023/09/14 03:00:07;;;;;;;4.32;2.55;;;;;;;18.16;57.79;102157.25;5053418;27;20097;-65
2023/09/14 03:02:35;;;;;;;4.90;2.35;;;;;;;18.14;58.01;102159.38;5055523;27;20048;-65
2023/09/14 03:05:04;;;;;;;3.97;2.05;;;;;;;18.12;57.86;102153.34;5050488;27;20048;-65
2023/09/14 03:07:33;;;;;;;5.38;2.20;;;;;;;18.12;57.57;102156.06;5054722;28;20098;-66
2023/09/14 03:10:01;;;;;;;4.35;2.65;;;;;;;17.99;57.59;102140.03;5056065;28;20052;-66
2023/09/14 03:12:28;;;;;;;5.68;2.28;;;;;;;18.10;57.75;102155.50;5063580;27;20056;-65
2023/09/14 03:14:56;;;;;;;6.32;2.20;;;;;;;18.08;57.81;102154.91;5054586;28;20121;-66
2023/09/14 03:17:24;;;;;;;7.82;1.98;;;;;;;18.08;57.85;102156.78;5054580;28;20045;-66
2023/09/14 03:19:53;;;;;;;4.20;2.15;;;;;;;18.05;57.91;102152.66;5056356;27;20057;-66
2023/09/14 03:22:20;;;;;;;5.22;2.40;;;;;;;18.04;57.84;102155.63;5054994;28;20053;-66
2023/09/14 03:24:50;;;;;;;6.00;2.05;;;;;;;18.04;57.68;102161.06;5056755;28;20419;-66
2023/09/14 03:27:18;;;;;;;6.28;2.85;;;;;;;18.02;57.73;102161.31;5054998;27;20139;-66
2023/09/14 03:29:45;;;;;;;3.80;1.95;;;;;;;18.01;57.79;102170.53;5048468;27;20053;-66
2023/09/14 03:32:13;;;;;;;4.22;2.13;;;;;;;18.00;57.96;102168.88;5053715;28;20164;-66
2023/09/14 03:34:41;;;;;;;5.75;2.22;;;;;;;18.01;57.68;102165.09;5056288;27;20045;-66
2023/09/14 03:37:09;;;;;;;7.25;3.15;;;;;;;17.98;57.73;102168.28;5054911;28;20045;-66
2023/09/14 03:39:37;;;;;;;5.20;2.45;;;;;;;17.96;57.72;102167.69;5056614;27;20122;-66
2023/09/14 03:42:10;;;;;;;6.57;2.22;;;;;;;17.96;57.70;102164.16;5058230;27;20051;-66
2023/09/14 03:44:38;;;;;;;4.13;2.08;;;;;;;17.94;57.86;102167.09;5054179;27;20448;-66
2023/09/14 03:47:06;;;;;;;5.78;2.30;;;;;;;17.93;57.91;102160.00;5057911;27;20062;-66
2023/09/14 03:49:34;;;;;;;4.80;2.35;;;;;;;17.91;57.88;102166.75;5055685;27;20053;-66
2023/09/14 03:52:02;;;;;;;4.18;2.40;;;;;;;17.91;57.89;102173.03;5055219;28;20049;-66
2023/09/14 03:54:29;;;;;;;5.50;2.58;;;;;;;17.88;57.92;102170.78;5055875;27;20048;-66
2023/09/14 03:56:57;;;;;;;6.07;2.08;;;;;;;17.87;57.82;102167.22;5059835;27;20465;-65
2023/09/14 03:59:26;;;;;;;7.40;2.30;;;;;;;17.86;57.66;102160.13;5058056;27;20060;-66
2023/09/14 04:01:55;;;;;;;8.05;2.75;;;;;;;17.85;57.81;102166.66;5054885;28;20053;-66
2023/09/14 04:04:23;;;;;;;6.40;2.78;;;;;;;17.84;57.88;102169.59;5056123;28;20060;-66
2023/09/14 04:06:51;;;;;;;5.60;2.15;;;;;;;17.77;57.67;102158.03;5054648;28;20400;-65
2023/09/14 04:09:18;;;;;;;4.20;1.98;;;;;;;17.82;57.79;102169.84;5055001;27;20049;-65
2023/09/14 04:11:46;;;;;;;6.95;2.33;;;;;;;17.82;57.69;102171.72;5062172;27;20048;-65
2023/09/14 04:14:14;;;;;;;7.15;2.55;;;;;;;17.81;57.72;102161.91;5054954;28;20401;-65
2023/09/14 04:16:43;;;;;;;4.03;2.05;;;;;;;17.80;57.63;102160.25;5056612;27;20068;-65
2023/09/14 04:19:12;;;;;;;4.00;2.35;;;;;;;17.72;57.95;102147.84;5051869;27;20045;-65
2023/09/14 04:21:41;;;;;;;5.35;2.28;;;;;;;17.76;57.63;102154.47;5056190;28;20048;-65
2023/09/14 04:24:09;;;;;;;4.72;2.17;;;;;;;17.73;57.69;102157.66;5055663;27;20041;-65
2023/09/14 04:26:38;;;;;;;7.30;2.97;;;;;;;17.72;57.76;102156.00;5053435;28;20445;-66
2023/09/14 04:29:06;;;;;;;3.90;1.90;;;;;;;17.74;57.79;102161.22;5053412;28;20049;-66
2023/09/14 04:31:35;;;;;;;5.30;2.50;;;;;;;17.72;57.78;102156.00;5054614;28;20089;-66
2023/09/14 04:34:04;;;;;;;5.10;2.63;;;;;;;17.68;57.62;102159.44;5056168;28;20053;-66
2023/09/14 04:36:32;;;;;;;8.80;3.35;;;;;;;17.70;57.70;102157.31;5062743;27;20048;-66
2023/09/14 04:39:00;;;;;;;5.15;2.53;;;;;;;17.70;57.84;102157.31;5053675;27;20053;-66
2023/09/14 04:41:30;;;;;;;4.53;2.80;;;;;;;17.68;57.72;102154.84;5055248;28;20049;-66
2023/09/14 04:43:58;;;;;;;4.43;1.90;;;;;;;17.67;57.75;102153.19;5059384;27;20049;-65
2023/09/14 04:46:27;;;;;;;8.18;3.33;;;;;;;17.66;57.75;102154.25;5058925;28;20049;-66
2023/09/14 04:48:55;;;;;;;6.32;2.58;;;;;;;17.66;57.78;102156.13;5056062;27;20177;-67
2023/09/14 04:51:25;;;;;;;4.78;2.25;;;;;;;17.53;57.88;102140.84;5051442;27;20077;-66
2023/09/14 04:53:52;;;;;;;5.18;2.45;;;;;;;17.64;57.85;102159.06;5056051;28;20098;-65
2023/09/14 04:56:20;;;;;;;4.18;1.85;;;;;;;17.63;57.90;102157.41;5051734;28;20053;-66
2023/09/14 04:58:48;;;;;;;7.30;2.15;;;;;;;17.63;57.77;102159.28;5052326;28;20060;-66
2023/09/14 05:01:16;;;;;;;6.90;2.40;;;;;;;17.62;57.83;102169.34;5052461;27;20052;-66
2023/09/14 05:03:44;;;;;;;3.83;1.83;;;;;;;17.60;57.91;102166.03;5052280;27;20295;-64
2023/09/14 05:06:13;;;;;;;6.57;2.83;;;;;;;17.59;57.71;102164.38;5055953;27;20105;-65
2023/09/14 05:08:42;;;;;;;5.50;2.70;;;;;;;17.57;57.85;102164.63;5052126;28;20093;-64
2023/09/14 05:11:10;;;;;;;6.90;3.05;;;;;;;17.58;57.80;102157.28;5052284;27;20052;-64
2023/09/14 05:13:38;;;;;;;5.20;2.55;;;;;;;17.37;57.93;102127.97;5052118;27;20082;-65
2023/09/14 05:16:05;;;;;;;9.60;2.40;;;;;;;17.55;57.89;102160.47;5051044;27;20045;-64
2023/09/14 05:18:33;;;;;;;6.15;2.65;;;;;;;17.56;57.73;102173.00;5054146;27;20052;-64
2023/09/14 05:21:01;;;;;;;4.05;2.20;;;;;;;17.53;57.85;102165.31;5054529;28;20045;-64
2023/09/14 05:23:29;;;;;;;6.80;2.25;;;;;;;17.54;57.75;102175.13;5055867;28;20078;-65
2023/09/14 05:25:58;;;;;;;5.32;2.42;;;;;;;17.53;57.79;102168.88;5053310;27;20045;-65
2023/09/14 05:28:26;;;;;;;8.15;2.50;;;;;;;17.48;57.98;102176.06;5054725;28;20045;-64
2023/09/14 05:30:54;;;;;;;6.32;2.35;;;;;;;17.51;57.97;102181.03;5049455;28;20117;-64
2023/09/14 05:33:22;;;;;;;7.95;2.58;;;;;;;17.50;58.00;102182.94;5056667;27;20120;-64
2023/09/14 05:35:50;;;;;;;4.40;1.92;;;;;;;17.50;57.89;102184.81;5066885;27;20114;-64
2023/09/14 05:38:18;;;;;;;4.47;2.65;;;;;;;17.48;57.84;102182.34;5054621;27;20072;-65
2023/09/14 05:40:46;;;;;;;5.07;2.13;;;;;;;17.47;57.89;102188.00;5057916;27;20447;-67
2023/09/14 05:43:15;;;;;;;6.97;2.78;;;;;;;17.46;57.95;102194.50;4704462;27;10000159;-66
2023/09/14 05:45:43;;;;;;;7.43;2.38;;;;;;;17.44;58.04;102194.75;5045428;28;20064;-66
2023/09/14 05:48:11;;;;;;;6.93;2.53;;;;;;;17.43;58.06;102194.97;5050442;28;20438;-66
2023/09/14 05:50:39;;;;;;;5.45;2.10;;;;;;;17.44;58.01;102202.06;5054703;27;20082;-66
2023/09/14 05:53:07;;;;;;;3.63;2.30;;;;;;;17.43;58.10;102200.41;5053202;28;20075;-66
2023/09/14 05:55:35;;;;;;;7.65;3.00;;;;;;;17.41;58.17;102195.22;5051296;28;20049;-66
2023/09/14 05:58:03;;;;;;;6.97;3.30;;;;;;;17.41;58.29;102203.38;5049764;28;20064;-68
2023/09/14 06:00:32;;;;;;;5.88;2.78;;;;;;;17.39;58.25;102194.63;5060463;27;20061;-65
2023/09/14 06:03:00;;;;;;;5.25;2.22;;;;;;;17.40;58.27;102190.84;5053360;27;20053;-64
2023/09/14 06:05:28;;;;;;;4.10;2.30;;;;;;;17.39;58.31;102194.63;5054262;28;20056;-65
2023/09/14 06:07:56;;;;;;;5.95;2.53;;;;;;;17.39;58.36;102199.22;5066298;27;20042;-64
2023/09/14 06:10:24;;;;;;;7.97;2.30;;;;;;;17.34;59.01;102196.38;5052226;28;20424;-71
2023/09/14 06:12:52;;;;;;;13.05;3.22;;;;;;;17.30;59.04;102196.06;5063724;27;20053;-62
2023/09/14 06:15:20;;;;;;;4.53;2.53;;;;;;;17.27;59.54;102201.94;5060824;27;20101;-64
2023/09/14 06:17:49;;;;;;;10.50;2.60;;;;;;;17.27;59.26;102207.38;5061732;28;20158;-65
2023/09/14 06:20:17;;;;;;;7.82;3.08;;;;;;;17.28;59.43;102210.94;5051281;27;20053;-64
2023/09/14 06:22:45;;;;;;;7.43;2.78;;;;;;;17.29;59.22;102207.16;5062143;28;20070;-64
2023/09/14 06:25:13;;;;;;;6.78;2.60;;;;;;;17.32;59.29;102202.09;5061988;27;20089;-64
2023/09/14 06:27:41;;;;;;;6.97;2.63;;;;;;;17.35;59.22;102198.03;5059766;28;20053;-64
2023/09/14 06:30:10;;;;;;;6.13;2.17;;;;;;;17.38;59.12;102194.84;5058901;27;20053;-64
2023/09/14 06:32:37;;;;;;;6.25;2.47;;;;;;;17.39;59.15;102208.22;5054397;27;20052;-64
2023/09/14 06:35:08;;;;;;;11.73;2.38;;;;;;;17.41;59.09;102202.53;5048410;28;20069;-65
2023/09/14 06:37:36;;;;;;;5.80;2.38;;;;;;;17.45;59.20;102206.44;5060461;28;20105;-64
2023/09/14 06:40:05;;;;;;;6.47;2.65;;;;;;;17.47;58.97;102205.16;5060008;28;20052;-64
2023/09/14 06:42:34;;;;;;;5.15;2.17;;;;;;;17.51;59.00;102200.06;5061895;27;20143;-64
2023/09/14 06:45:02;;;;;;;7.90;2.90;;;;;;;17.53;59.07;102200.66;5060110;28;20060;-65
2023/09/14 06:47:30;;;;;;;5.95;2.30;;;;;;;17.53;59.06;102197.94;5060526;27;20105;-65
2023/09/14 06:49:58;;;;;;;5.05;2.20;;;;;;;17.55;59.10;102203.97;5061034;28;20139;-64
2023/09/14 06:52:27;;;;;;;6.47;2.38;;;;;;;17.55;59.20;102203.97;5060632;28;20532;-64
2023/09/14 06:54:55;;;;;;;5.78;2.03;;;;;;;17.54;59.17;102203.16;5061385;28;20053;-64
2023/09/14 06:57:23;;;;;;;5.88;2.78;;;;;;;17.48;59.23;102189.66;5062037;27;20041;-64
2023/09/14 06:59:51;;;;;;;6.00;2.55;;;;;;;17.55;59.30;102204.81;5058553;27;20052;-64
2023/09/14 07:02:19;;;;;;;4.25;2.33;;;;;;;17.58;59.34;102206.22;5058087;28;20194;-64
2023/09/14 07:04:47;;;;;;;9.52;2.50;;;;;;;17.58;59.21;102204.31;5059133;27;20058;-64
2023/09/14 07:07:16;;;;;;;3.83;2.10;;;;;;;17.61;59.53;102208.47;5057397;27;20072;-65
2023/09/14 07:09:45;;;;;;;4.40;2.70;;;;;;;17.64;59.41;102210.72;5056128;28;20057;-64
2023/09/14 07:12:13;;;;;;;5.10;2.40;;;;;;;17.68;59.47;102213.81;5065126;27;20059;-64
2023/09/14 07:14:41;;;;;;;9.05;2.30;;;;;;;17.68;59.45;102206.50;5059261;27;20057;-64
2023/09/14 07:17:09;;;;;;;3.90;2.10;;;;;;;17.73;59.49;102212.06;5059801;28;20063;-64
2023/09/14 07:19:37;;;;;;;4.18;2.47;;;;;;;17.79;59.25;102207.56;5051305;27;20448;-64
2023/09/14 07:22:05;;;;;;;5.40;2.55;;;;;;;17.80;59.42;102211.94;5060117;27;20049;-64
2023/09/14 07:24:33;;;;;;;8.15;2.70;;;;;;;17.83;59.65;102214.19;5054990;27;20499;-64
2023/09/14 07:27:02;;;;;;;6.10;2.70;;;;;;;17.83;59.21;102204.13;5059774;27;20056;-64
2023/09/14 07:29:30;;;;;;;5.85;2.38;;;;;;;17.82;59.60;102210.63;5054489;28;20102;-64
2023/09/14 07:31:58;;;;;;;10.27;2.45;;;;;;;17.84;59.74;102204.97;5057692;27;20089;-64
2023/09/14 07:34:27;;;;;;;4.43;2.65;;;;;;;17.85;59.61;102214.78;5055951;27;20045;-64
2023/09/14 07:36:55;;;;;;;3.95;2.67;;;;;;;17.84;59.75;102215.84;5054083;27;20049;-65
2023/09/14 07:39:23;;;;;;;10.13;2.45;;;;;;;17.83;59.62;102219.63;5055573;28;20049;-65
2023/09/14 07:41:55;;;;;;;8.60;3.13;;;;;;;17.82;59.99;102221.50;5060934;27;20052;-65
2023/09/14 07:44:24;;;;;;;6.95;2.40;;;;;;;17.82;60.11;102216.06;5054094;27;20057;-65
2023/09/14 07:46:52;;;;;;;3.72;2.00;;;;;;;17.82;59.94;102223.41;5059186;28;20053;-65
2023/09/14 07:49:20;;;;;;;6.13;2.63;;;;;;;17.83;60.03;102216.91;5059671;28;20188;-64
2023/09/14 07:51:47;;;;;;;5.20;2.78;;;;;;;17.86;60.39;102228.13;5061418;27;20418;-65
2023/09/14 07:54:16;;;;;;;7.10;3.17;;;;;;;17.90;60.05;102225.78;5060433;27;20052;-65
2023/09/14 07:56:44;;;;;;;3.58;1.77;;;;;;;17.88;59.94;102225.19;5057934;27;20529;-65
2023/09/14 07:59:12;;;;;;;8.82;2.40;;;;;;;17.87;59.94;102226.25;5059215;28;20057;-65
2023/09/14 08:01:41;;;;;;;5.22;2.20;;;;;;;17.87;60.00;102232.50;5059862;27;20053;-65
2023/09/14 08:04:09;;;;;;;3.60;1.88;;;;;;;17.85;60.39;102237.34;5058389;28;20117;-64
2023/09/14 08:06:36;;;;;;;5.78;2.28;;;;;;;17.79;60.32;102218.44;5058140;28;20455;-63
2023/09/14 08:09:04;;;;;;;5.55;2.53;;;;;;;17.83;60.60;102230.50;5061403;27;20045;-64
2023/09/14 08:11:34;;;;;;;3.97;2.05;;;;;;;17.82;60.61;102226.13;5069266;27;20085;-64
2023/09/14 08:14:02;;;;;;;5.35;2.67;;;;;;;17.82;60.80;102220.69;5062064;27;20155;-64
2023/09/14 08:16:30;;;;;;;7.10;2.45;;;;;;;17.81;60.92;102227.19;5061083;27;20049;-64
2023/09/14 08:19:00;;;;;;;3.88;2.05;;;;;;;17.80;60.88;102218.19;5060606;27;20074;-64
2023/09/14 08:21:28;;;;;;;5.88;2.50;;;;;;;17.80;61.07;102220.91;5058570;27;20045;-63
2023/09/14 08:23:56;;;;;;;6.03;2.40;;;;;;;17.81;61.13;102225.28;5046895;27;20104;-65
2023/09/14 08:26:24;;;;;;;5.75;2.80;;;;;;;17.82;61.16;102232.38;5058361;28;20045;-64
2023/09/14 08:28:52;;;;;;;6.30;2.95;;;;;;;17.83;61.32;102225.88;5054789;28;20056;-65
2023/09/14 08:31:21;;;;;;;4.57;2.30;;;;;;;17.84;61.29;102224.00;5056445;28;20072;-64
2023/09/14 08:33:49;;;;;;;5.03;2.53;;;;;;;17.84;61.48;102230.25;5056472;27;20519;-65
2023/09/14 08:36:18;;;;;;;4.78;2.25;;;;;;;17.87;61.36;102239.84;5058924;28;20045;-65
2023/09/14 08:38:46;;;;;;;7.18;2.17;;;;;;;17.87;61.36;102237.13;5059799;28;20049;-65
2023/09/14 08:41:26;;;;;;;5.30;2.60;;;;;;;17.89;61.46;102243.16;5057075;27;20049;-64
2023/09/14 08:43:55;;;;;;;5.32;2.70;;;;;;;17.91;61.46;102248.34;5059467;27;20049;-64
2023/09/14 08:46:24;;;;;;;5.30;2.85;;;;;;;17.92;61.42;102241.84;5058560;28;20045;-64
2023/09/14 08:48:55;;;;;;;8.63;2.45;;;;;;;17.95;61.68;102244.09;5060315;27;20045;-64
2023/09/14 08:51:27;;;;;;;5.75;2.60;;;;;;;17.96;61.24;102230.25;5059087;28;20056;-65
2023/09/14 08:53:56;;;;;;;5.55;2.50;;;;;;;17.96;61.58;102235.69;5060486;28;20056;-64
2023/09/14 08:56:43;;;;;;;4.03;2.10;;;;;;;17.98;61.49;102244.44;5060214;28;20049;-65
2023/09/14 08:59:12;;;;;;;4.05;2.30;;;;;;;17.99;61.65;102237.13;5059980;27;20109;-64
2023/09/14 09:01:40;;;;;;;9.35;2.80;;;;;;;18.01;61.51;102240.44;5057487;28;20053;-64
2023/09/14 09:04:09;;;;;;;4.85;2.50;;;;;;;18.02;61.57;102225.75;5059204;27;20164;-64
2023/09/14 09:06:38;;;;;;;7.53;2.70;;;;;;;18.04;61.79;102234.50;5058432;27;20053;-64
2023/09/14 09:09:09;;;;;;;4.20;2.35;;;;;;;18.05;61.74;102225.28;5043470;28;20054;-65
2023/09/14 09:11:38;;;;;;;6.30;2.80;;;;;;;18.06;61.70;102224.22;5068617;27;20055;-64
2023/09/14 09:14:06;;;;;;;5.50;2.72;;;;;;;18.07;61.84;102223.97;5058037;28;20101;-64
2023/09/14 09:16:34;;;;;;;6.00;2.80;;;;;;;18.09;61.92;102221.03;5058018;27;20066;-64
2023/09/14 09:19:03;;;;;;;3.50;2.50;;;;;;;18.10;61.77;102225.41;5063364;27;20552;-64
2023/09/14 09:21:36;;;;;;;5.30;3.10;;;;;;;18.12;62.12;102220.56;5062747;28;20074;-64
2023/09/14 09:24:07;;;;;;;7.72;3.03;;;;;;;18.13;62.05;102223.03;5062092;28;20080;-64
2023/09/14 09:26:36;;;;;;;6.63;2.97;;;;;;;18.15;62.05;102230.97;5059612;27;20060;-64
2023/09/14 09:29:14;;;;;;;5.45;2.70;;;;;;;18.16;62.08;102222.56;5057490;28;20049;-64
2023/09/14 09:31:44;;;;;;;5.38;3.17;;;;;;;18.18;62.10;102214.16;5050643;27;20063;-65
2023/09/14 09:34:13;;;;;;;4.55;2.70;;;;;;;18.20;62.17;102220.19;5053595;28;20131;-65
2023/09/14 09:36:41;;;;;;;3.70;2.22;;;;;;;18.20;62.27;102215.56;5060778;28;20067;-65
2023/09/14 09:39:13;;;;;;;5.95;2.88;;;;;;;18.22;62.07;102220.78;5064253;27;20052;-64
2023/09/14 09:41:41;;;;;;;5.70;3.38;;;;;;;18.24;62.36;102223.25;5063013;28;20048;-64
2023/09/14 09:44:10;;;;;;;6.13;2.72;;;;;;;18.26;62.02;102215.69;5062116;27;20053;-64
2023/09/14 09:46:38;;;;;;;4.05;2.60;;;;;;;18.27;62.19;102211.88;5059758;27;20095;-64
2023/09/14 09:49:17;;;;;;;5.38;2.67;;;;;;;18.28;62.18;102216.25;5061251;28;20493;-64
2023/09/14 09:51:46;;;;;;;5.85;3.03;;;;;;;18.29;62.03;102207.88;5064450;27;20060;-64
2023/09/14 09:54:15;;;;;;;4.65;2.72;;;;;;;18.30;62.53;102209.50;5062729;28;20049;-65
2023/09/14 09:56:43;;;;;;;4.90;3.13;;;;;;;18.32;62.24;102210.09;5062319;28;20081;-65
2023/09/14 09:59:13;;;;;;;4.88;2.45;;;;;;;18.33;62.34;102206.31;5058549;28;20048;-65
2023/09/14 10:01:42;;;;;;;3.72;2.67;;;;;;;18.23;62.18;102184.31;5062629;27;20100;-63
2023/09/14 10:04:10;;;;;;;4.47;2.55;;;;;;;18.36;62.44;102203.09;5059183;27;20053;-63
2023/09/14 10:06:40;;;;;;;7.10;2.70;;;;;;;18.35;62.21;102197.91;5059088;28;20512;-64
2023/09/14 10:09:10;;;;;;;4.63;2.90;;;;;;;18.39;62.38;102196.34;5062702;28;20056;-64
2023/09/14 10:11:40;;;;;;;5.75;2.65;;;;;;;18.30;62.18;102184.19;5067808;27;20067;-64
2023/09/14 10:14:13;;;;;;;4.15;2.88;;;;;;;18.44;62.15;102201.91;5056007;27;20049;-64
2023/09/14 10:16:43;;;;;;;5.10;2.60;;;;;;;18.45;62.37;102196.22;5053072;27;20454;-64
2023/09/14 10:19:12;;;;;;;3.90;2.70;;;;;;;18.48;62.41;102201.19;5061883;27;20223;-65
2023/09/14 10:21:42;;;;;;;5.38;2.95;;;;;;;18.50;62.42;102199.03;5062264;28;20074;-65
2023/09/14 10:24:12;;;;;;;7.25;2.45;;;;;;;18.52;62.71;102193.34;5063354;27;20051;-64
2023/09/14 10:26:44;;;;;;;6.15;2.63;;;;;;;18.54;62.71;102199.38;5061554;28;20093;-65
2023/09/14 10:29:12;;;;;;;4.50;2.60;;;;;;;18.58;62.67;102203.28;5060747;28;20053;-65
2023/09/14 10:31:43;;;;;;;5.88;2.35;;;;;;;18.59;62.45;102202.22;5058481;28;20056;-65
2023/09/14 10:34:13;;;;;;;6.32;2.88;;;;;;;18.60;62.28;102192.97;5059949;27;20055;-65
2023/09/14 10:36:43;;;;;;;4.00;2.65;;;;;;;18.63;62.14;102194.41;5062389;27;20073;-65
2023/09/14 10:39:12;;;;;;;9.15;2.75;;;;;;;18.64;62.26;102196.06;5062131;28;20089;-64
2023/09/14 10:41:41;;;;;;;5.53;2.33;;;;;;;18.66;62.33;102188.50;5062512;27;20078;-64
2023/09/14 10:44:09;;;;;;;5.05;2.95;;;;;;;18.66;62.02;102186.59;5052648;27;20046;-64
2023/09/14 10:46:42;;;;;;;5.57;3.03;;;;;;;18.69;62.21;102186.09;5060945;28;20048;-64
2023/09/14 10:49:10;;;;;;;4.47;2.45;;;;;;;18.71;62.25;102178.53;5053072;27;20120;-65
2023/09/14 10:51:38;;;;;;;5.90;2.22;;;;;;;18.76;62.82;102180.50;5056519;27;20152;-65
2023/09/14 10:54:06;;;;;;;7.00;2.85;;;;;;;18.89;62.82;102180.22;5061728;28;20053;-64
2023/09/14 10:56:34;;;;;;;3.03;1.95;;;;;;;18.91;63.06;102177.25;5055445;27;20121;-64
2023/09/14 10:59:08;;;;;;;3.92;2.45;;;;;;;18.93;62.17;102173.19;5060097;28;20106;-63
2023/09/14 11:01:48;;;;;;;4.35;2.33;;;;;;;18.98;63.49;102172.47;5059835;28;20072;-63
2023/09/14 11:04:22;;;;;;;3.88;2.38;;;;;;;18.90;63.21;102157.34;5060067;27;20037;-63
2023/09/14 11:06:52;;;;;;;5.10;2.35;;;;;;;19.02;63.14;102176.34;5059639;27;20045;-63
2023/09/14 11:09:23;;;;;;;3.75;2.22;;;;;;;19.04;62.81;102163.31;5068524;27;20482;-63
2023/09/14 11:11:53;;;;;;;3.35;1.95;;;;;;;19.04;62.53;102163.31;5076947;27;20049;-63
2023/09/14 11:14:28;;;;;;;4.65;2.17;;;;;;;19.05;62.03;102170.41;5055294;28;20116;-63
2023/09/14 11:16:58;;;;;;;4.72;2.22;;;;;;;19.06;62.00;102158.44;5060301;28;20052;-63
2023/09/14 11:19:52;;;;;;;3.55;2.00;;;;;;;19.05;61.93;102168.50;5061215;27;20382;-63
2023/09/14 11:22:26;;;;;;;3.58;1.73;;;;;;;19.10;62.55;102159.56;5056968;28;20048;-63
2023/09/14 11:24:56;;;;;;;3.28;1.95;;;;;;;19.10;62.40;102154.94;4709672;28;9999722;-63
2023/09/14 11:27:27;;;;;;;3.60;2.35;;;;;;;19.13;62.32;102161.81;5053586;27;20336;-63
2023/09/14 11:29:58;;;;;;;3.97;1.98;;;;;;;19.13;61.95;102142.72;5047043;28;20049;-64
2023/09/14 11:32:29;;;;;;;3.80;2.17;;;;;;;19.25;62.22;102159.81;5058648;27;20064;-63